createdAt,value
2023-04-19T00:00:47.193Z,8.10
2023-04-19T00:03:19.856Z,8.00
2023-04-19T00:05:50.035Z,7.90
2023-04-19T00:08:18.248Z,7.90
2023-04-19T00:10:46.938Z,7.90
2023-04-19T00:13:15.289Z,7.80
2023-04-19T00:15:43.855Z,7.80
2023-04-19T00:18:12.038Z,7.70
2023-04-19T00:20:40.737Z,7.60
2023-04-19T00:23:10.447Z,7.60
2023-04-19T00:25:39.176Z,7.50
2023-04-19T00:28:07.396Z,7.50
2023-04-19T00:30:35.945Z,7.40
2023-04-19T00:33:04.498Z,7.40
2023-04-19T00:35:33.078Z,7.30
2023-04-19T00:38:01.422Z,7.30
2023-04-19T00:40:32.854Z,7.20
2023-04-19T00:43:01.102Z,7.10
2023-04-19T00:45:30.098Z,7.10
2023-04-19T00:47:58.399Z,7.00
2023-04-19T00:50:27.841Z,7.00
2023-04-19T00:52:56.880Z,7.00
2023-04-19T00:55:26.002Z,6.90
2023-04-19T00:57:55.988Z,6.90
2023-04-19T01:00:24.466Z,6.90
2023-04-19T01:02:53.789Z,6.80
2023-04-19T01:05:22.533Z,6.80
2023-04-19T01:07:51.392Z,6.80
2023-04-19T01:10:19.923Z,6.70
2023-04-19T01:12:48.250Z,6.60
2023-04-19T01:15:18.189Z,6.80
2023-04-19T01:17:46.522Z,6.60
2023-04-19T01:20:15.507Z,6.50
2023-04-19T01:22:45.260Z,6.50
2023-04-19T01:25:14.101Z,6.40
2023-04-19T01:27:42.370Z,6.40
2023-04-19T01:30:11.823Z,6.30
2023-04-19T01:32:40.233Z,6.30
2023-04-19T01:35:11.123Z,6.20
2023-04-19T01:37:39.322Z,6.20
2023-04-19T01:40:10.246Z,6.10
2023-04-19T01:42:38.682Z,6.00
2023-04-19T01:45:08.166Z,6.00
2023-04-19T01:47:36.442Z,6.00
2023-04-19T01:50:05.390Z,5.90
2023-04-19T01:52:33.565Z,5.90
2023-04-19T01:55:02.559Z,5.90
2023-04-19T01:57:32.254Z,5.80
2023-04-19T02:00:01.141Z,5.80
2023-04-19T02:02:29.728Z,5.80
2023-04-19T02:04:59.111Z,5.70
2023-04-19T02:07:27.353Z,5.70
2023-04-19T02:09:55.999Z,5.80
2023-04-19T02:12:25.441Z,5.70
2023-04-19T02:14:57.538Z,5.80
2023-04-19T02:17:25.966Z,5.70
2023-04-19T02:19:54.644Z,5.80
2023-04-19T02:22:23.052Z,5.80
2023-04-19T02:24:52.189Z,5.80
2023-04-19T02:27:20.658Z,5.80
2023-04-19T02:29:49.212Z,5.70
2023-04-19T02:32:19.288Z,5.70
2023-04-19T02:34:47.911Z,5.70
2023-04-19T02:37:16.215Z,5.70
2023-04-19T02:39:45.905Z,5.80
2023-04-19T02:42:14.172Z,5.80
2023-04-19T02:44:42.810Z,5.80
2023-04-19T02:47:11.037Z,5.90
2023-04-19T02:49:41.597Z,5.90
2023-04-19T02:52:09.887Z,6.00
2023-04-19T02:54:38.343Z,6.00
2023-04-19T02:57:06.680Z,6.10
2023-04-19T02:59:35.458Z,6.20
2023-04-19T03:02:03.701Z,6.20
2023-04-19T03:04:32.706Z,6.20
2023-04-19T03:07:02.346Z,6.10
2023-04-19T03:09:30.935Z,6.10
2023-04-19T03:11:59.204Z,6.10
2023-04-19T03:14:27.860Z,6.10
2023-04-19T03:16:56.110Z,6.10
2023-04-19T03:19:24.666Z,6.10
2023-04-19T03:21:52.868Z,6.20
2023-04-19T03:24:29.230Z,6.20
2023-04-19T03:26:57.522Z,6.20
2023-04-19T03:29:26.297Z,6.30
2023-04-19T03:31:54.621Z,6.40
2023-04-19T03:34:23.477Z,6.40
2023-04-19T03:36:51.681Z,6.50
2023-04-19T03:39:20.208Z,6.50
2023-04-19T03:41:49.805Z,6.50
2023-04-19T03:44:18.560Z,6.60
2023-04-19T03:46:48.741Z,6.60
2023-04-19T03:49:17.290Z,6.60
2023-04-19T03:51:45.635Z,6.60
2023-04-19T03:54:14.388Z,6.60
2023-04-19T03:56:43.172Z,6.60
2023-04-19T03:59:13.097Z,6.60
2023-04-19T04:01:42.306Z,6.60
2023-04-19T04:04:11.983Z,6.60
2023-04-19T04:06:40.849Z,6.70
2023-04-19T04:09:09.573Z,6.70
2023-04-19T04:11:38.010Z,6.80
2023-04-19T04:14:06.596Z,6.70
2023-04-19T04:16:36.340Z,6.80
2023-04-19T04:19:05.057Z,6.90
2023-04-19T04:21:33.476Z,7.00
2023-04-19T04:24:03.812Z,7.10
2023-04-19T04:26:34.009Z,7.10
2023-04-19T04:29:03.062Z,7.20
2023-04-19T04:31:31.926Z,7.20
2023-04-19T04:34:01.982Z,7.10
2023-04-19T04:36:31.225Z,7.20
2023-04-19T04:39:01.963Z,7.20
2023-04-19T04:41:31.528Z,7.30
2023-04-19T04:44:12.182Z,7.30
2023-04-19T04:46:41.510Z,7.30
2023-04-19T04:49:11.413Z,7.30
2023-04-19T04:51:39.786Z,7.30
2023-04-19T04:54:08.417Z,7.30
2023-04-19T04:56:37.049Z,7.30
2023-04-19T04:59:05.897Z,7.30
2023-04-19T05:01:34.493Z,7.20
2023-04-19T05:04:03.517Z,7.20
2023-04-19T05:06:34.674Z,7.20
2023-04-19T05:09:03.246Z,7.20
2023-04-19T05:11:31.578Z,7.20
2023-04-19T05:14:00.275Z,7.20
2023-04-19T05:16:28.667Z,7.20
2023-04-19T05:18:57.411Z,7.20
2023-04-19T05:21:26.958Z,7.20
2023-04-19T05:23:57.177Z,7.30
2023-04-19T05:26:25.900Z,7.30
2023-04-19T05:28:54.490Z,7.30
2023-04-19T05:31:22.996Z,7.30
2023-04-19T05:33:51.574Z,7.40
2023-04-19T05:36:19.896Z,7.40
2023-04-19T05:38:48.519Z,7.40
2023-04-19T05:41:18.223Z,7.40
2023-04-19T05:43:46.820Z,7.40
2023-04-19T05:46:15.325Z,7.40
2023-04-19T05:48:43.980Z,7.50
2023-04-19T05:51:12.301Z,7.50
2023-04-19T05:53:40.844Z,7.50
2023-04-19T05:56:09.440Z,7.50
2023-04-19T05:58:39.424Z,7.50
2023-04-19T06:01:08.128Z,7.50
2023-04-19T06:03:37.043Z,7.50
2023-04-19T06:06:05.900Z,7.50
2023-04-19T06:08:34.548Z,7.60
2023-04-19T06:11:15.165Z,7.50
2023-04-19T06:13:51.540Z,7.60
2023-04-19T06:16:20.123Z,7.70
2023-04-19T06:18:48.870Z,7.70
2023-04-19T06:21:17.778Z,7.90
2023-04-19T06:23:46.596Z,7.90
2023-04-19T06:26:14.939Z,8.00
2023-04-19T06:28:43.442Z,8.00
2023-04-19T06:31:13.423Z,8.00
2023-04-19T06:33:42.160Z,8.00
2023-04-19T06:36:11.451Z,7.90
2023-04-19T06:38:41.682Z,7.90
2023-04-19T06:41:10.497Z,7.80
2023-04-19T06:43:40.694Z,7.70
2023-04-19T06:46:10.002Z,7.60
2023-04-19T06:48:40.100Z,7.80
2023-04-19T06:51:08.454Z,7.40
2023-04-19T06:53:37.409Z,7.40
2023-04-19T06:56:06.908Z,7.40
2023-04-19T06:58:35.827Z,7.50
2023-04-19T07:01:05.060Z,7.50
2023-04-19T07:03:34.238Z,7.60
2023-04-19T07:06:04.232Z,7.60
2023-04-19T07:08:46.400Z,7.60
2023-04-19T07:11:19.345Z,7.60
2023-04-19T07:13:49.291Z,7.60
2023-04-19T07:16:17.591Z,7.60
2023-04-19T07:18:46.288Z,7.60
2023-04-19T07:21:16.354Z,7.60
2023-04-19T07:23:44.888Z,7.60
2023-04-19T07:26:14.983Z,7.60
2023-04-19T07:28:43.741Z,7.50
2023-04-19T07:31:16.816Z,7.50
2023-04-19T07:33:46.522Z,7.40
2023-04-19T07:36:16.158Z,7.40
2023-04-19T07:38:45.017Z,7.40
2023-04-19T07:41:13.903Z,7.40
2023-04-19T07:43:42.502Z,7.40
2023-04-19T07:46:12.857Z,7.40
2023-04-19T07:48:41.725Z,7.40
2023-04-19T07:51:11.560Z,7.30
2023-04-19T07:53:43.681Z,7.30
2023-04-19T07:56:13.161Z,7.30
2023-04-19T07:58:43.861Z,7.30
2023-04-19T08:01:12.438Z,7.30
2023-04-19T08:03:41.618Z,7.40
2023-04-19T08:06:10.171Z,7.40
2023-04-19T08:08:38.862Z,7.40
2023-04-19T08:11:08.577Z,7.40
2023-04-19T08:13:37.175Z,7.50
2023-04-19T08:16:36.974Z,7.50
2023-04-19T08:18:54.436Z,7.60
2023-04-19T08:21:26.161Z,7.60
2023-04-19T08:24:03.176Z,7.70
2023-04-19T08:26:32.865Z,7.70
2023-04-19T08:29:01.701Z,7.80
2023-04-19T08:31:30.035Z,7.80
2023-04-19T08:34:00.505Z,7.90
2023-04-19T08:36:39.213Z,8.00
2023-04-19T08:39:28.927Z,8.10
2023-04-19T08:42:10.482Z,8.20
2023-04-19T08:47:30.237Z,8.30
2023-04-19T08:50:11.156Z,8.30
2023-04-19T08:52:55.889Z,8.40
2023-04-19T08:55:29.180Z,8.50
2023-04-19T08:57:59.684Z,8.50
2023-04-19T09:00:28.268Z,8.50
2023-04-19T09:02:56.923Z,8.60
2023-04-19T09:05:26.008Z,8.60
2023-04-19T09:07:54.613Z,8.60
2023-04-19T09:10:23.114Z,8.60
2023-04-19T09:13:06.853Z,8.60
2023-04-19T09:15:40.918Z,8.70
2023-04-19T09:18:10.941Z,8.70
2023-04-19T09:20:40.781Z,8.70
2023-04-19T09:23:12.912Z,8.80
2023-04-19T09:25:59.230Z,8.80
2023-04-19T09:28:34.069Z,8.90
2023-04-19T09:31:33.018Z,8.90
2023-04-19T09:34:15.293Z,8.90
2023-04-19T09:36:43.971Z,9.00
2023-04-19T09:39:14.630Z,9.00
2023-04-19T09:41:53.604Z,9.00
2023-04-19T09:46:55.926Z,9.10
2023-04-19T09:49:37.395Z,9.10
2023-04-19T09:52:15.825Z,9.10
2023-04-19T09:54:46.137Z,9.10
2023-04-19T09:57:16.202Z,9.10
2023-04-19T09:59:45.985Z,9.20
2023-04-19T10:02:16.102Z,9.20
2023-04-19T10:07:30.028Z,9.20
2023-04-19T10:18:13.548Z,9.30
2023-04-19T10:20:51.212Z,9.30
2023-04-19T10:23:20.844Z,9.30
2023-04-19T10:25:50.085Z,9.40
2023-04-19T10:28:18.459Z,9.40
2023-04-19T10:31:02.692Z,9.40
2023-04-19T10:33:36.061Z,9.40
2023-04-19T10:36:09.399Z,9.40
2023-04-19T10:38:39.693Z,9.50
2023-04-19T10:41:16.978Z,9.50
2023-04-19T10:43:48.074Z,9.60
2023-04-19T10:46:38.145Z,9.60
2023-04-19T10:49:08.991Z,9.60
2023-04-19T10:51:39.581Z,9.70
2023-04-19T10:54:09.350Z,9.70
2023-04-19T10:57:11.904Z,9.70
2023-04-19T10:59:43.099Z,9.70
2023-04-19T11:02:33.925Z,9.80
2023-04-19T11:05:04.696Z,9.70
2023-04-19T11:07:41.094Z,9.80
2023-04-19T11:10:12.749Z,9.70
2023-04-19T11:12:45.952Z,9.70
2023-04-19T11:15:14.446Z,9.70
2023-04-19T11:17:44.652Z,9.70
2023-04-19T11:20:14.740Z,9.60
2023-04-19T11:22:46.833Z,9.60
2023-04-19T11:25:18.283Z,9.50
2023-04-19T11:27:51.176Z,9.50
2023-04-19T11:30:23.280Z,9.50
2023-04-19T11:32:54.761Z,9.40
2023-04-19T11:35:25.175Z,9.40
2023-04-19T11:37:57.627Z,9.30
2023-04-19T11:40:27.473Z,9.30
2023-04-19T11:42:57.005Z,9.20
2023-04-19T11:45:32.073Z,9.10
2023-04-19T11:48:03.530Z,9.10
2023-04-19T11:50:37.356Z,9.00
2023-04-19T11:53:14.110Z,8.90
2023-04-19T11:55:45.281Z,8.90
2023-04-19T11:58:32.347Z,8.80
2023-04-19T12:01:06.695Z,8.90
2023-04-19T12:03:41.936Z,8.90
2023-04-19T12:06:14.733Z,8.90
2023-04-19T12:08:47.193Z,8.80
2023-04-19T12:11:16.386Z,8.80
2023-04-19T12:13:45.661Z,8.80
2023-04-19T12:16:14.934Z,8.80
2023-04-19T12:18:48.276Z,8.80
2023-04-19T12:21:34.428Z,8.80
2023-04-19T12:24:03.747Z,8.80
2023-04-19T12:26:32.423Z,8.70
2023-04-19T12:29:02.710Z,8.70
2023-04-19T12:31:33.728Z,8.70
2023-04-19T12:34:03.732Z,8.70
2023-04-19T12:36:31.985Z,8.70
2023-04-19T12:39:00.646Z,8.70
2023-04-19T12:41:29.193Z,8.70
2023-04-19T12:43:57.842Z,8.70
2023-04-19T12:46:26.579Z,8.80
2023-04-19T12:48:55.106Z,8.80
2023-04-19T12:51:24.728Z,8.80
2023-04-19T12:53:53.889Z,8.80
2023-04-19T12:56:22.608Z,8.80
2023-04-19T12:58:51.152Z,8.80
2023-04-19T13:01:19.498Z,8.90
2023-04-19T13:03:49.786Z,8.80
2023-04-19T13:06:18.376Z,8.80
2023-04-19T13:08:48.301Z,8.90
2023-04-19T13:11:22.960Z,8.80
2023-04-19T13:13:53.569Z,8.80
2023-04-19T13:16:22.678Z,8.80
2023-04-19T13:18:52.559Z,8.80
2023-04-19T13:21:21.308Z,8.80
2023-04-19T13:23:51.667Z,8.70
2023-04-19T13:26:20.258Z,8.80
2023-04-19T13:28:48.829Z,8.70
2023-04-19T13:31:17.456Z,8.70
2023-04-19T13:33:46.508Z,8.70
2023-04-19T13:36:14.750Z,8.80
2023-04-19T13:38:43.225Z,8.70
2023-04-19T13:41:12.923Z,8.80
2023-04-19T13:43:41.686Z,8.80
2023-04-19T13:46:09.962Z,8.80
2023-04-19T13:48:38.606Z,8.90
2023-04-19T13:51:08.020Z,9.00
2023-04-19T13:53:36.714Z,9.00
2023-04-19T13:56:09.218Z,9.10
2023-04-19T13:58:39.280Z,9.10
2023-04-19T14:01:07.895Z,9.20
2023-04-19T14:03:36.965Z,9.10
2023-04-19T14:06:05.815Z,9.10
2023-04-19T14:08:34.436Z,9.10
2023-04-19T14:11:02.976Z,9.20
2023-04-19T14:13:31.720Z,9.20
2023-04-19T14:16:01.566Z,9.30
2023-04-19T14:18:30.213Z,9.40
2023-04-19T14:20:58.577Z,9.50
2023-04-19T14:23:28.105Z,9.50
2023-04-19T14:25:56.373Z,9.50
2023-04-19T14:28:24.941Z,9.60
2023-04-19T14:30:53.320Z,9.50
2023-04-19T14:33:23.617Z,9.50
2023-04-19T14:35:52.144Z,9.60
2023-04-19T14:38:20.832Z,9.60
2023-04-19T14:40:49.344Z,9.60
2023-04-19T14:43:18.000Z,9.50
2023-04-19T14:45:46.279Z,9.50
2023-04-19T14:48:14.953Z,9.50
2023-04-19T14:50:44.775Z,9.50
2023-04-19T14:53:13.452Z,9.50
2023-04-19T14:55:41.848Z,9.50
2023-04-19T14:58:10.433Z,9.50
2023-04-19T15:00:38.759Z,9.50
2023-04-19T15:03:07.721Z,9.50
2023-04-19T15:05:37.309Z,9.50
2023-04-19T15:08:12.471Z,9.50
2023-04-19T15:10:45.763Z,9.60
2023-04-19T15:13:14.300Z,9.60
2023-04-19T15:15:42.895Z,9.60
2023-04-19T15:18:11.786Z,9.70
2023-04-19T15:20:40.142Z,9.70
2023-04-19T15:23:10.480Z,9.70
2023-04-19T15:25:38.899Z,9.70
2023-04-19T15:28:07.683Z,9.80
2023-04-19T15:30:36.127Z,9.80
2023-04-19T15:33:04.896Z,9.80
2023-04-19T15:35:33.606Z,9.90
2023-04-19T15:38:02.454Z,9.90
2023-04-19T15:40:32.101Z,9.90
2023-04-19T15:43:00.761Z,10.00
2023-04-19T15:45:29.231Z,10.10
2023-04-19T15:47:58.041Z,10.10
2023-04-19T15:50:26.462Z,10.10
2023-04-19T15:52:55.116Z,10.20
2023-04-19T15:55:23.800Z,10.20
2023-04-19T15:57:54.353Z,10.20
2023-04-19T16:00:23.528Z,10.10
2023-04-19T16:02:52.199Z,10.10
2023-04-19T16:05:21.202Z,10.10
2023-04-19T16:07:52.104Z,10.10
2023-04-19T16:10:20.489Z,10.10
2023-04-19T16:12:49.342Z,10.10
2023-04-19T16:15:19.325Z,10.00
2023-04-19T16:17:48.178Z,10.00
2023-04-19T16:20:16.730Z,10.00
2023-04-19T16:22:45.744Z,10.00
2023-04-19T16:25:14.368Z,10.00
2023-04-19T16:27:44.281Z,10.00
2023-04-19T16:30:13.348Z,10.00
2023-04-19T16:32:44.756Z,10.00
2023-04-19T16:35:13.318Z,10.10
2023-04-19T16:37:42.085Z,10.10
2023-04-19T16:40:12.257Z,10.00
2023-04-19T16:42:41.257Z,10.10
2023-04-19T16:45:11.034Z,10.00
2023-04-19T16:47:40.382Z,10.00
2023-04-19T16:50:10.425Z,10.00
2023-04-19T16:52:39.240Z,10.10
2023-04-19T16:55:08.854Z,10.00
2023-04-19T16:57:37.798Z,10.00
2023-04-19T17:00:07.134Z,9.90
2023-04-19T17:02:35.780Z,9.90
2023-04-19T17:05:04.487Z,10.00
2023-04-19T17:07:34.562Z,9.90
2023-04-19T17:10:02.940Z,10.00
2023-04-19T17:12:31.587Z,10.00
2023-04-19T17:14:59.842Z,10.00
2023-04-19T17:17:28.368Z,9.80
2023-04-19T17:19:57.804Z,9.90
2023-04-19T17:22:26.874Z,9.90
2023-04-19T17:24:57.466Z,9.80
2023-04-19T17:27:26.345Z,9.80
2023-04-19T17:29:54.917Z,9.80
2023-04-19T17:32:23.919Z,9.80
2023-04-19T17:34:52.463Z,9.70
2023-04-19T17:37:21.162Z,9.70
2023-04-19T17:39:49.599Z,9.70
2023-04-19T17:42:19.615Z,9.70
2023-04-19T17:44:48.289Z,9.70
2023-04-19T17:47:17.097Z,9.70
2023-04-19T17:49:46.930Z,9.70
2023-04-19T17:52:15.758Z,9.70
2023-04-19T17:54:43.986Z,9.60
2023-04-19T17:57:12.716Z,9.60
2023-04-19T17:59:42.491Z,9.60
2023-04-19T18:02:11.415Z,9.50
2023-04-19T18:04:44.641Z,9.50
2023-04-19T18:07:13.466Z,9.50
2023-04-19T18:09:41.982Z,9.50
2023-04-19T18:12:10.703Z,9.50
2023-04-19T18:14:38.954Z,9.50
2023-04-19T18:17:08.818Z,9.50
2023-04-19T18:19:37.758Z,9.50
2023-04-19T18:22:06.375Z,9.50
2023-04-19T18:24:34.702Z,9.50
2023-04-19T18:27:04.117Z,9.40
2023-04-19T18:29:32.324Z,9.40
2023-04-19T18:32:00.776Z,9.50
2023-04-19T18:34:30.610Z,9.50
2023-04-19T18:37:01.027Z,9.60
2023-04-19T18:39:29.650Z,9.70
2023-04-19T18:41:58.385Z,9.80
2023-04-19T18:44:49.711Z,10.00
2023-04-19T18:47:15.510Z,10.20
2023-04-19T18:49:55.609Z,10.30
2023-04-19T18:52:31.734Z,10.50
2023-04-19T18:55:00.735Z,10.60
2023-04-19T18:57:30.595Z,10.70
2023-04-19T19:00:02.385Z,10.80
2023-04-19T19:02:31.324Z,10.90
2023-04-19T19:05:02.399Z,11.00
2023-04-19T19:07:36.156Z,11.10
2023-04-19T19:10:18.232Z,11.20
2023-04-19T19:12:49.691Z,11.30
2023-04-19T19:15:18.647Z,11.30
2023-04-19T19:17:49.784Z,11.30
2023-04-19T19:20:20.456Z,11.30
2023-04-19T19:22:49.225Z,11.30
2023-04-19T19:25:17.542Z,11.30
2023-04-19T19:28:02.908Z,11.30
2023-04-19T19:30:34.839Z,11.30
2023-04-19T19:33:04.981Z,11.40
2023-04-19T19:35:34.826Z,11.40
2023-04-19T19:38:03.516Z,11.40
2023-04-19T19:40:32.890Z,11.30
2023-04-19T19:43:01.999Z,11.30
2023-04-19T19:45:31.315Z,11.30
2023-04-19T19:48:00.587Z,11.20
2023-04-19T19:53:03.319Z,11.10
2023-04-19T19:55:31.601Z,11.10
2023-04-19T19:58:32.530Z,11.10
2023-04-19T20:00:52.037Z,11.00
2023-04-19T20:03:33.149Z,11.00
2023-04-19T20:08:44.540Z,10.90
2023-04-19T20:11:13.361Z,10.80
2023-04-19T20:13:42.010Z,10.80
2023-04-19T20:16:11.342Z,10.80
2023-04-19T20:18:42.473Z,10.80
2023-04-19T20:21:11.238Z,10.80
2023-04-19T20:23:41.255Z,10.80
2023-04-19T20:26:09.497Z,10.80
2023-04-19T20:28:38.337Z,10.80
2023-04-19T20:31:06.990Z,10.80
2023-04-19T20:33:35.480Z,10.80
2023-04-19T20:36:03.733Z,10.70
2023-04-19T20:38:34.608Z,10.80
2023-04-19T20:41:04.237Z,10.70
2023-04-19T20:43:33.021Z,10.70
2023-04-19T20:46:01.572Z,10.60
2023-04-19T20:48:30.114Z,10.60
2023-04-19T20:50:58.314Z,10.60
2023-04-19T20:53:27.109Z,10.60
2023-04-19T20:55:55.581Z,10.50
2023-04-19T20:58:25.610Z,10.60
2023-04-19T21:00:53.930Z,10.50
2023-04-19T21:03:22.981Z,10.50
2023-04-19T21:05:51.316Z,10.50
2023-04-19T21:08:19.791Z,10.50
2023-04-19T21:10:48.226Z,10.50
2023-04-19T21:13:16.849Z,10.50
2023-04-19T21:15:46.469Z,10.60
2023-04-19T21:18:15.033Z,10.60
2023-04-19T21:20:43.311Z,10.60
2023-04-19T21:23:11.912Z,10.60
2023-04-19T21:25:40.486Z,10.60
2023-04-19T21:28:09.115Z,10.50
2023-04-19T21:30:38.745Z,10.60
2023-04-19T21:33:08.851Z,10.50
2023-04-19T21:35:37.638Z,10.50
2023-04-19T21:38:06.739Z,10.50
2023-04-19T21:40:35.140Z,10.40
2023-04-19T21:43:03.666Z,10.40
2023-04-19T21:45:32.125Z,10.30
2023-04-19T21:48:00.849Z,10.30
2023-04-19T21:50:30.944Z,10.20
2023-04-19T21:52:59.929Z,10.20
2023-04-19T21:55:28.503Z,10.20
2023-04-19T21:57:57.379Z,10.10
2023-04-19T22:00:26.137Z,10.10
2023-04-19T22:02:54.846Z,10.10
2023-04-19T22:05:23.067Z,10.10
2023-04-19T22:07:52.976Z,10.10
2023-04-19T22:10:21.189Z,10.10
2023-04-19T22:12:57.694Z,10.10
2023-04-19T22:15:27.990Z,10.10
2023-04-19T22:17:57.488Z,10.10
2023-04-19T22:20:26.841Z,10.10
2023-04-19T22:22:56.783Z,10.10
2023-04-19T22:25:25.109Z,10.10
2023-04-19T22:27:54.041Z,10.10
2023-04-19T22:30:22.494Z,10.10
2023-04-19T22:32:51.192Z,10.10
2023-04-19T22:35:22.543Z,10.10
2023-04-19T22:37:51.692Z,10.10
2023-04-19T22:40:21.356Z,10.10
2023-04-19T22:42:49.831Z,10.10
2023-04-19T22:45:18.363Z,10.20
2023-04-19T22:47:46.885Z,10.10
2023-04-19T22:50:15.305Z,10.20
2023-04-19T22:52:44.584Z,10.10
2023-04-19T22:55:13.075Z,10.20
2023-04-19T22:57:43.229Z,10.20
2023-04-19T23:00:14.938Z,10.20
2023-04-19T23:02:43.570Z,10.20
2023-04-19T23:05:12.045Z,10.20
2023-04-19T23:07:43.052Z,10.20
2023-04-19T23:10:12.365Z,10.20
2023-04-19T23:12:42.228Z,10.20
2023-04-19T23:15:12.167Z,10.20
2023-04-19T23:17:40.721Z,10.20
2023-04-19T23:20:11.168Z,10.20
2023-04-19T23:22:42.060Z,10.20
2023-04-19T23:25:11.003Z,10.20
2023-04-19T23:27:39.521Z,10.20
2023-04-19T23:30:10.084Z,10.20
2023-04-19T23:32:38.976Z,10.30
2023-04-19T23:35:07.794Z,10.30
2023-04-19T23:37:36.732Z,10.30
2023-04-19T23:40:06.086Z,10.30
2023-04-19T23:42:34.765Z,10.30
2023-04-19T23:45:03.135Z,10.30
2023-04-19T23:47:33.618Z,10.30
2023-04-19T23:50:01.834Z,10.30
2023-04-19T23:52:30.489Z,10.30
2023-04-19T23:54:58.898Z,10.40
2023-04-19T23:57:27.399Z,10.40
2023-04-19T23:59:55.655Z,10.40
